sensor_id;sensor_type;location;lat;lon;timestamp;P1;durP1;ratioP1;P2;durP2;ratioP2
7359;SDS011;3720;48.274;7.796;2023-03-16T00:01:24;11.90;;;6.57;;
7359;SDS011;3720;48.274;7.796;2023-03-16T00:03:58;13.20;;;7.25;;
7359;SDS011;3720;48.274;7.796;2023-03-16T00:06:31;11.13;;;7.30;;
7359;SDS011;3720;48.274;7.796;2023-03-16T00:09:03;11.40;;;7.15;;
7359;SDS011;3720;48.274;7.796;2023-03-16T00:11:35;11.27;;;5.97;;
7359;SDS011;3720;48.274;7.796;2023-03-16T00:14:06;6.97;;;4.53;;
7359;SDS011;3720;48.274;7.796;2023-03-16T00:16:39;6.75;;;4.72;;
7359;SDS011;3720;48.274;7.796;2023-03-16T00:19:12;8.07;;;5.45;;
7359;SDS011;3720;48.274;7.796;2023-03-16T00:21:44;6.95;;;3.97;;
7359;SDS011;3720;48.274;7.796;2023-03-16T00:24:16;5.63;;;3.35;;
7359;SDS011;3720;48.274;7.796;2023-03-16T00:26:49;6.28;;;3.35;;
7359;SDS011;3720;48.274;7.796;2023-03-16T00:29:23;5.47;;;3.78;;
7359;SDS011;3720;48.274;7.796;2023-03-16T00:31:55;6.88;;;3.85;;
7359;SDS011;3720;48.274;7.796;2023-03-16T00:34:29;6.65;;;4.28;;
7359;SDS011;3720;48.274;7.796;2023-03-16T00:37:05;8.18;;;4.20;;
7359;SDS011;3720;48.274;7.796;2023-03-16T00:39:37;6.72;;;3.95;;
7359;SDS011;3720;48.274;7.796;2023-03-16T00:42:10;6.10;;;4.07;;
7359;SDS011;3720;48.274;7.796;2023-03-16T00:44:43;6.93;;;3.42;;
7359;SDS011;3720;48.274;7.796;2023-03-16T00:47:15;6.18;;;3.05;;
7359;SDS011;3720;48.274;7.796;2023-03-16T00:49:48;6.32;;;3.00;;
7359;SDS011;3720;48.274;7.796;2023-03-16T00:52:20;8.02;;;3.60;;
7359;SDS011;3720;48.274;7.796;2023-03-16T00:54:53;6.47;;;3.40;;
7359;SDS011;3720;48.274;7.796;2023-03-16T00:57:26;4.95;;;3.15;;
7359;SDS011;3720;48.274;7.796;2023-03-16T00:59:59;6.35;;;3.50;;
7359;SDS011;3720;48.274;7.796;2023-03-16T01:02:39;5.78;;;2.65;;
7359;SDS011;3720;48.274;7.796;2023-03-16T01:05:13;7.05;;;2.90;;
7359;SDS011;3720;48.274;7.796;2023-03-16T01:07:45;6.43;;;3.42;;
7359;SDS011;3720;48.274;7.796;2023-03-16T01:10:17;6.22;;;3.40;;
7359;SDS011;3720;48.274;7.796;2023-03-16T01:12:50;5.55;;;3.38;;
7359;SDS011;3720;48.274;7.796;2023-03-16T01:15:25;6.43;;;3.40;;
7359;SDS011;3720;48.274;7.796;2023-03-16T01:17:57;6.75;;;3.50;;
7359;SDS011;3720;48.274;7.796;2023-03-16T01:20:30;6.65;;;3.67;;
7359;SDS011;3720;48.274;7.796;2023-03-16T01:23:02;6.55;;;3.78;;
7359;SDS011;3720;48.274;7.796;2023-03-16T01:25:34;5.28;;;3.63;;
7359;SDS011;3720;48.274;7.796;2023-03-16T01:28:06;7.50;;;3.90;;
7359;SDS011;3720;48.274;7.796;2023-03-16T01:30:38;6.05;;;3.70;;
7359;SDS011;3720;48.274;7.796;2023-03-16T01:33:10;6.82;;;3.83;;
7359;SDS011;3720;48.274;7.796;2023-03-16T01:35:43;4.90;;;3.65;;
7359;SDS011;3720;48.274;7.796;2023-03-16T01:38:22;7.57;;;3.50;;
7359;SDS011;3720;48.274;7.796;2023-03-16T01:40:55;3.97;;;3.22;;
7359;SDS011;3720;48.274;7.796;2023-03-16T01:43:29;6.55;;;3.55;;
7359;SDS011;3720;48.274;7.796;2023-03-16T01:46:11;4.68;;;3.28;;
7359;SDS011;3720;48.274;7.796;2023-03-16T01:48:54;8.18;;;3.88;;
7359;SDS011;3720;48.274;7.796;2023-03-16T01:51:34;5.82;;;3.17;;
7359;SDS011;3720;48.274;7.796;2023-03-16T01:56:44;5.47;;;3.60;;
7359;SDS011;3720;48.274;7.796;2023-03-16T01:59:22;4.38;;;3.38;;
7359;SDS011;3720;48.274;7.796;2023-03-16T02:01:57;6.80;;;3.63;;
7359;SDS011;3720;48.274;7.796;2023-03-16T02:04:41;5.15;;;3.33;;
7359;SDS011;3720;48.274;7.796;2023-03-16T02:07:20;5.07;;;3.42;;
7359;SDS011;3720;48.274;7.796;2023-03-16T02:09:55;5.25;;;3.13;;
7359;SDS011;3720;48.274;7.796;2023-03-16T02:12:31;4.53;;;3.20;;
7359;SDS011;3720;48.274;7.796;2023-03-16T02:15:04;5.10;;;2.90;;
7359;SDS011;3720;48.274;7.796;2023-03-16T02:17:37;5.35;;;3.03;;
7359;SDS011;3720;48.274;7.796;2023-03-16T02:20:14;5.45;;;3.10;;
7359;SDS011;3720;48.274;7.796;2023-03-16T02:22:55;5.03;;;2.97;;
7359;SDS011;3720;48.274;7.796;2023-03-16T02:25:30;4.95;;;3.03;;
7359;SDS011;3720;48.274;7.796;2023-03-16T02:28:13;5.13;;;3.22;;
7359;SDS011;3720;48.274;7.796;2023-03-16T02:30:50;6.30;;;3.30;;
7359;SDS011;3720;48.274;7.796;2023-03-16T02:33:24;4.65;;;3.20;;
7359;SDS011;3720;48.274;7.796;2023-03-16T02:35:56;6.00;;;2.97;;
7359;SDS011;3720;48.274;7.796;2023-03-16T02:38:28;4.80;;;2.60;;
7359;SDS011;3720;48.274;7.796;2023-03-16T02:41:04;4.60;;;2.72;;
7359;SDS011;3720;48.274;7.796;2023-03-16T02:43:42;5.80;;;2.92;;
7359;SDS011;3720;48.274;7.796;2023-03-16T02:46:23;4.75;;;2.72;;
7359;SDS011;3720;48.274;7.796;2023-03-16T02:48:59;5.93;;;3.00;;
7359;SDS011;3720;48.274;7.796;2023-03-16T02:54:07;4.20;;;2.83;;
7359;SDS011;3720;48.274;7.796;2023-03-16T02:56:38;4.68;;;2.75;;
7359;SDS011;3720;48.274;7.796;2023-03-16T02:59:10;3.30;;;2.60;;
7359;SDS011;3720;48.274;7.796;2023-03-16T03:01:44;4.05;;;2.65;;
7359;SDS011;3720;48.274;7.796;2023-03-16T03:04:16;3.58;;;2.50;;
7359;SDS011;3720;48.274;7.796;2023-03-16T03:06:49;3.13;;;2.20;;
7359;SDS011;3720;48.274;7.796;2023-03-16T03:09:21;4.40;;;2.65;;
7359;SDS011;3720;48.274;7.796;2023-03-16T03:11:53;3.97;;;2.63;;
7359;SDS011;3720;48.274;7.796;2023-03-16T03:14:25;4.88;;;2.40;;
7359;SDS011;3720;48.274;7.796;2023-03-16T03:17:00;3.10;;;2.40;;
7359;SDS011;3720;48.274;7.796;2023-03-16T03:19:33;5.25;;;2.50;;
7359;SDS011;3720;48.274;7.796;2023-03-16T03:22:06;7.90;;;3.40;;
7359;SDS011;3720;48.274;7.796;2023-03-16T03:24:38;6.30;;;3.55;;
7359;SDS011;3720;48.274;7.796;2023-03-16T03:27:10;5.90;;;3.53;;
7359;SDS011;3720;48.274;7.796;2023-03-16T03:29:42;4.15;;;2.97;;
7359;SDS011;3720;48.274;7.796;2023-03-16T03:32:18;6.20;;;3.25;;
7359;SDS011;3720;48.274;7.796;2023-03-16T03:34:50;4.47;;;2.80;;
7359;SDS011;3720;48.274;7.796;2023-03-16T03:37:22;4.88;;;2.75;;
7359;SDS011;3720;48.274;7.796;2023-03-16T03:39:54;3.72;;;2.28;;
7359;SDS011;3720;48.274;7.796;2023-03-16T03:42:26;3.97;;;2.40;;
7359;SDS011;3720;48.274;7.796;2023-03-16T03:44:58;4.80;;;2.10;;
7359;SDS011;3720;48.274;7.796;2023-03-16T03:47:31;3.42;;;2.13;;
7359;SDS011;3720;48.274;7.796;2023-03-16T03:50:04;3.30;;;2.00;;
7359;SDS011;3720;48.274;7.796;2023-03-16T03:52:37;4.07;;;2.15;;
7359;SDS011;3720;48.274;7.796;2023-03-16T03:55:09;3.65;;;2.30;;
7359;SDS011;3720;48.274;7.796;2023-03-16T03:57:42;3.55;;;2.10;;
7359;SDS011;3720;48.274;7.796;2023-03-16T04:00:14;3.65;;;1.75;;
7359;SDS011;3720;48.274;7.796;2023-03-16T04:02:51;3.30;;;1.90;;
7359;SDS011;3720;48.274;7.796;2023-03-16T04:05:23;4.53;;;2.20;;
7359;SDS011;3720;48.274;7.796;2023-03-16T04:07:56;3.92;;;1.75;;
7359;SDS011;3720;48.274;7.796;2023-03-16T04:10:28;5.88;;;2.00;;
7359;SDS011;3720;48.274;7.796;2023-03-16T04:13:01;3.13;;;2.15;;
7359;SDS011;3720;48.274;7.796;2023-03-16T04:15:33;4.05;;;2.03;;
7359;SDS011;3720;48.274;7.796;2023-03-16T04:18:08;3.83;;;2.13;;
7359;SDS011;3720;48.274;7.796;2023-03-16T04:20:42;2.85;;;2.00;;
7359;SDS011;3720;48.274;7.796;2023-03-16T04:23:14;3.58;;;2.15;;
7359;SDS011;3720;48.274;7.796;2023-03-16T04:25:46;3.75;;;2.10;;
7359;SDS011;3720;48.274;7.796;2023-03-16T04:28:18;4.88;;;2.45;;
7359;SDS011;3720;48.274;7.796;2023-03-16T04:30:51;5.35;;;2.38;;
7359;SDS011;3720;48.274;7.796;2023-03-16T04:33:24;6.15;;;2.90;;
7359;SDS011;3720;48.274;7.796;2023-03-16T04:35:57;4.95;;;3.30;;
7359;SDS011;3720;48.274;7.796;2023-03-16T04:38:29;7.03;;;3.50;;
7359;SDS011;3720;48.274;7.796;2023-03-16T04:41:03;8.93;;;4.13;;
7359;SDS011;3720;48.274;7.796;2023-03-16T04:43:36;6.05;;;3.45;;
7359;SDS011;3720;48.274;7.796;2023-03-16T04:46:07;7.68;;;4.00;;
7359;SDS011;3720;48.274;7.796;2023-03-16T04:48:42;9.40;;;4.60;;
7359;SDS011;3720;48.274;7.796;2023-03-16T04:51:14;7.25;;;4.30;;
7359;SDS011;3720;48.274;7.796;2023-03-16T04:53:45;8.30;;;4.30;;
7359;SDS011;3720;48.274;7.796;2023-03-16T04:56:17;8.30;;;4.55;;
7359;SDS011;3720;48.274;7.796;2023-03-16T04:58:49;7.82;;;4.72;;
7359;SDS011;3720;48.274;7.796;2023-03-16T05:01:21;8.60;;;4.78;;
7359;SDS011;3720;48.274;7.796;2023-03-16T05:03:55;8.43;;;4.85;;
7359;SDS011;3720;48.274;7.796;2023-03-16T05:06:27;6.65;;;4.03;;
7359;SDS011;3720;48.274;7.796;2023-03-16T05:08:59;7.60;;;4.15;;
7359;SDS011;3720;48.274;7.796;2023-03-16T05:11:33;7.00;;;3.95;;
7359;SDS011;3720;48.274;7.796;2023-03-16T05:14:06;5.97;;;3.33;;
7359;SDS011;3720;48.274;7.796;2023-03-16T05:16:38;8.95;;;4.65;;
7359;SDS011;3720;48.274;7.796;2023-03-16T05:19:12;7.90;;;4.38;;
7359;SDS011;3720;48.274;7.796;2023-03-16T05:21:44;7.85;;;3.90;;
7359;SDS011;3720;48.274;7.796;2023-03-16T05:24:16;6.53;;;3.90;;
7359;SDS011;3720;48.274;7.796;2023-03-16T05:26:47;5.90;;;3.75;;
7359;SDS011;3720;48.274;7.796;2023-03-16T05:29:19;6.15;;;3.75;;
7359;SDS011;3720;48.274;7.796;2023-03-16T05:31:51;7.05;;;3.70;;
7359;SDS011;3720;48.274;7.796;2023-03-16T05:34:25;5.65;;;3.40;;
7359;SDS011;3720;48.274;7.796;2023-03-16T05:36:57;7.40;;;3.58;;
7359;SDS011;3720;48.274;7.796;2023-03-16T05:39:29;5.50;;;3.50;;
7359;SDS011;3720;48.274;7.796;2023-03-16T05:42:01;4.20;;;2.92;;
7359;SDS011;3720;48.274;7.796;2023-03-16T05:44:34;6.88;;;3.15;;
7359;SDS011;3720;48.274;7.796;2023-03-16T05:47:07;3.55;;;2.83;;
7359;SDS011;3720;48.274;7.796;2023-03-16T05:49:40;5.50;;;3.38;;
7359;SDS011;3720;48.274;7.796;2023-03-16T05:52:12;5.32;;;3.10;;
7359;SDS011;3720;48.274;7.796;2023-03-16T05:54:44;4.63;;;2.90;;
7359;SDS011;3720;48.274;7.796;2023-03-16T05:57:16;6.18;;;3.20;;
7359;SDS011;3720;48.274;7.796;2023-03-16T05:59:48;6.95;;;4.15;;
7359;SDS011;3720;48.274;7.796;2023-03-16T06:02:20;9.65;;;4.68;;
7359;SDS011;3720;48.274;7.796;2023-03-16T06:04:53;7.80;;;4.30;;
7359;SDS011;3720;48.274;7.796;2023-03-16T06:07:25;9.05;;;4.20;;
7359;SDS011;3720;48.274;7.796;2023-03-16T06:09:57;6.32;;;4.20;;
7359;SDS011;3720;48.274;7.796;2023-03-16T06:12:29;8.82;;;4.20;;
7359;SDS011;3720;48.274;7.796;2023-03-16T06:15:01;8.40;;;3.90;;
7359;SDS011;3720;48.274;7.796;2023-03-16T06:17:36;6.95;;;4.13;;
7359;SDS011;3720;48.274;7.796;2023-03-16T06:20:11;9.82;;;5.28;;
7359;SDS011;3720;48.274;7.796;2023-03-16T06:22:43;12.25;;;6.72;;
7359;SDS011;3720;48.274;7.796;2023-03-16T06:25:15;17.52;;;7.95;;
7359;SDS011;3720;48.274;7.796;2023-03-16T06:27:48;19.48;;;9.10;;
7359;SDS011;3720;48.274;7.796;2023-03-16T06:30:20;16.60;;;8.73;;
7359;SDS011;3720;48.274;7.796;2023-03-16T06:32:52;14.13;;;7.80;;
7359;SDS011;3720;48.274;7.796;2023-03-16T06:35:25;23.27;;;11.05;;
7359;SDS011;3720;48.274;7.796;2023-03-16T06:37:57;28.35;;;13.05;;
7359;SDS011;3720;48.274;7.796;2023-03-16T06:40:30;39.15;;;16.92;;
7359;SDS011;3720;48.274;7.796;2023-03-16T06:43:11;16.52;;;9.40;;
7359;SDS011;3720;48.274;7.796;2023-03-16T06:45:43;10.13;;;6.28;;
7359;SDS011;3720;48.274;7.796;2023-03-16T06:48:15;9.70;;;5.55;;
7359;SDS011;3720;48.274;7.796;2023-03-16T06:50:49;7.32;;;4.97;;
7359;SDS011;3720;48.274;7.796;2023-03-16T06:53:21;8.15;;;5.50;;
7359;SDS011;3720;48.274;7.796;2023-03-16T06:55:53;7.13;;;4.80;;
7359;SDS011;3720;48.274;7.796;2023-03-16T06:58:25;8.82;;;4.72;;
7359;SDS011;3720;48.274;7.796;2023-03-16T07:00:59;9.90;;;5.30;;
7359;SDS011;3720;48.274;7.796;2023-03-16T07:03:32;6.57;;;4.50;;
7359;SDS011;3720;48.274;7.796;2023-03-16T07:06:06;9.88;;;5.43;;
7359;SDS011;3720;48.274;7.796;2023-03-16T07:08:38;16.15;;;8.48;;
7359;SDS011;3720;48.274;7.796;2023-03-16T07:11:11;16.73;;;8.25;;
7359;SDS011;3720;48.274;7.796;2023-03-16T07:13:44;16.52;;;7.97;;
7359;SDS011;3720;48.274;7.796;2023-03-16T07:16:16;13.60;;;6.45;;
7359;SDS011;3720;48.274;7.796;2023-03-16T07:18:48;8.02;;;5.22;;
7359;SDS011;3720;48.274;7.796;2023-03-16T07:21:21;8.45;;;4.70;;
7359;SDS011;3720;48.274;7.796;2023-03-16T07:23:53;6.15;;;3.97;;
7359;SDS011;3720;48.274;7.796;2023-03-16T07:26:25;4.82;;;3.08;;
7359;SDS011;3720;48.274;7.796;2023-03-16T07:28:57;7.25;;;3.20;;
7359;SDS011;3720;48.274;7.796;2023-03-16T07:31:29;6.32;;;3.05;;
7359;SDS011;3720;48.274;7.796;2023-03-16T07:34:02;5.32;;;3.00;;
7359;SDS011;3720;48.274;7.796;2023-03-16T07:36:36;5.35;;;2.97;;
7359;SDS011;3720;48.274;7.796;2023-03-16T07:39:08;6.30;;;3.33;;
7359;SDS011;3720;48.274;7.796;2023-03-16T07:41:43;5.43;;;3.20;;
7359;SDS011;3720;48.274;7.796;2023-03-16T07:44:15;6.18;;;3.38;;
7359;SDS011;3720;48.274;7.796;2023-03-16T07:46:47;7.85;;;3.60;;
7359;SDS011;3720;48.274;7.796;2023-03-16T07:49:18;7.35;;;3.60;;
7359;SDS011;3720;48.274;7.796;2023-03-16T07:51:52;7.00;;;3.45;;
7359;SDS011;3720;48.274;7.796;2023-03-16T07:54:24;5.00;;;3.05;;
7359;SDS011;3720;48.274;7.796;2023-03-16T07:56:56;9.20;;;3.53;;
7359;SDS011;3720;48.274;7.796;2023-03-16T07:59:27;6.50;;;3.92;;
7359;SDS011;3720;48.274;7.796;2023-03-16T08:02:00;6.43;;;3.63;;
7359;SDS011;3720;48.274;7.796;2023-03-16T08:04:32;9.32;;;4.18;;
7359;SDS011;3720;48.274;7.796;2023-03-16T08:07:06;9.98;;;4.28;;
7359;SDS011;3720;48.274;7.796;2023-03-16T08:09:38;8.48;;;4.28;;
7359;SDS011;3720;48.274;7.796;2023-03-16T08:12:11;7.15;;;4.32;;
7359;SDS011;3720;48.274;7.796;2023-03-16T08:14:43;6.35;;;4.13;;
7359;SDS011;3720;48.274;7.796;2023-03-16T08:17:15;7.18;;;4.53;;
7359;SDS011;3720;48.274;7.796;2023-03-16T08:19:47;6.57;;;4.40;;
7359;SDS011;3720;48.274;7.796;2023-03-16T08:22:20;6.22;;;4.40;;
7359;SDS011;3720;48.274;7.796;2023-03-16T08:24:52;7.75;;;4.68;;
7359;SDS011;3720;48.274;7.796;2023-03-16T08:27:24;7.45;;;4.70;;
7359;SDS011;3720;48.274;7.796;2023-03-16T08:29:58;6.10;;;4.22;;
7359;SDS011;3720;48.274;7.796;2023-03-16T08:32:34;7.15;;;4.10;;
7359;SDS011;3720;48.274;7.796;2023-03-16T08:35:07;8.75;;;4.53;;
7359;SDS011;3720;48.274;7.796;2023-03-16T08:37:43;6.95;;;4.70;;
7359;SDS011;3720;48.274;7.796;2023-03-16T08:40:16;7.18;;;4.72;;
7359;SDS011;3720;48.274;7.796;2023-03-16T08:42:51;8.05;;;4.68;;
7359;SDS011;3720;48.274;7.796;2023-03-16T08:45:23;8.63;;;5.07;;
7359;SDS011;3720;48.274;7.796;2023-03-16T08:47:55;8.60;;;4.78;;
7359;SDS011;3720;48.274;7.796;2023-03-16T08:50:27;7.05;;;4.70;;
7359;SDS011;3720;48.274;7.796;2023-03-16T08:53:00;10.55;;;5.47;;
7359;SDS011;3720;48.274;7.796;2023-03-16T08:55:32;8.32;;;5.32;;
7359;SDS011;3720;48.274;7.796;2023-03-16T08:58:04;10.52;;;5.75;;
7359;SDS011;3720;48.274;7.796;2023-03-16T09:00:36;7.65;;;4.85;;
7359;SDS011;3720;48.274;7.796;2023-03-16T09:03:09;8.90;;;4.95;;
7359;SDS011;3720;48.274;7.796;2023-03-16T09:05:41;7.35;;;4.70;;
7359;SDS011;3720;48.274;7.796;2023-03-16T09:08:14;8.60;;;4.40;;
7359;SDS011;3720;48.274;7.796;2023-03-16T09:10:47;8.52;;;4.28;;
7359;SDS011;3720;48.274;7.796;2023-03-16T09:13:20;8.55;;;4.13;;
7359;SDS011;3720;48.274;7.796;2023-03-16T09:15:52;5.82;;;3.60;;
7359;SDS011;3720;48.274;7.796;2023-03-16T09:18:24;4.65;;;2.88;;
7359;SDS011;3720;48.274;7.796;2023-03-16T09:20:56;6.07;;;3.35;;
7359;SDS011;3720;48.274;7.796;2023-03-16T09:23:30;4.50;;;2.90;;
7359;SDS011;3720;48.274;7.796;2023-03-16T09:26:03;6.78;;;3.90;;
7359;SDS011;3720;48.274;7.796;2023-03-16T09:28:37;5.78;;;3.92;;
7359;SDS011;3720;48.274;7.796;2023-03-16T09:33:47;7.60;;;4.20;;
7359;SDS011;3720;48.274;7.796;2023-03-16T09:36:18;6.70;;;4.47;;
7359;SDS011;3720;48.274;7.796;2023-03-16T09:38:52;8.25;;;4.72;;
7359;SDS011;3720;48.274;7.796;2023-03-16T09:41:33;7.82;;;4.20;;
7359;SDS011;3720;48.274;7.796;2023-03-16T09:44:17;7.07;;;3.67;;
7359;SDS011;3720;48.274;7.796;2023-03-16T09:46:58;8.32;;;3.35;;
7359;SDS011;3720;48.274;7.796;2023-03-16T09:49:34;6.30;;;2.60;;
7359;SDS011;3720;48.274;7.796;2023-03-16T09:52:11;6.40;;;2.92;;
7359;SDS011;3720;48.274;7.796;2023-03-16T09:54:55;5.13;;;2.72;;
7359;SDS011;3720;48.274;7.796;2023-03-16T09:57:30;4.28;;;2.70;;
7359;SDS011;3720;48.274;7.796;2023-03-16T10:00:09;4.75;;;2.47;;
7359;SDS011;3720;48.274;7.796;2023-03-16T10:05:44;4.53;;;2.38;;
7359;SDS011;3720;48.274;7.796;2023-03-16T10:08:20;4.05;;;2.42;;
7359;SDS011;3720;48.274;7.796;2023-03-16T10:11:01;7.55;;;3.00;;
7359;SDS011;3720;48.274;7.796;2023-03-16T10:13:46;5.47;;;2.95;;
7359;SDS011;3720;48.274;7.796;2023-03-16T10:16:22;4.97;;;3.00;;
7359;SDS011;3720;48.274;7.796;2023-03-16T10:18:59;5.95;;;3.40;;
7359;SDS011;3720;48.274;7.796;2023-03-16T10:21:34;4.78;;;2.78;;
7359;SDS011;3720;48.274;7.796;2023-03-16T10:24:15;3.60;;;2.60;;
7359;SDS011;3720;48.274;7.796;2023-03-16T10:26:57;4.18;;;2.40;;
7359;SDS011;3720;48.274;7.796;2023-03-16T10:29:31;5.05;;;2.60;;
7359;SDS011;3720;48.274;7.796;2023-03-16T10:32:11;4.03;;;2.40;;
7359;SDS011;3720;48.274;7.796;2023-03-16T10:34:46;5.50;;;2.72;;
7359;SDS011;3720;48.274;7.796;2023-03-16T10:37:24;4.97;;;2.58;;
7359;SDS011;3720;48.274;7.796;2023-03-16T10:40:00;4.30;;;2.50;;
7359;SDS011;3720;48.274;7.796;2023-03-16T10:42:39;4.35;;;2.47;;
7359;SDS011;3720;48.274;7.796;2023-03-16T10:45:18;3.10;;;2.17;;
7359;SDS011;3720;48.274;7.796;2023-03-16T10:48:04;4.88;;;2.30;;
7359;SDS011;3720;48.274;7.796;2023-03-16T10:50:37;6.70;;;2.20;;
7359;SDS011;3720;48.274;7.796;2023-03-16T10:53:14;3.22;;;2.17;;
7359;SDS011;3720;48.274;7.796;2023-03-16T10:55:55;3.97;;;2.25;;
7359;SDS011;3720;48.274;7.796;2023-03-16T10:58:30;3.80;;;1.95;;
7359;SDS011;3720;48.274;7.796;2023-03-16T11:01:08;4.13;;;1.80;;
7359;SDS011;3720;48.274;7.796;2023-03-16T11:03:46;2.78;;;1.70;;
7359;SDS011;3720;48.274;7.796;2023-03-16T11:06:21;2.42;;;1.35;;
7359;SDS011;3720;48.274;7.796;2023-03-16T11:09:01;6.60;;;1.63;;
7359;SDS011;3720;48.274;7.796;2023-03-16T11:11:37;5.20;;;1.88;;
7359;SDS011;3720;48.274;7.796;2023-03-16T11:14:12;3.03;;;1.50;;
7359;SDS011;3720;48.274;7.796;2023-03-16T11:16:45;2.45;;;1.30;;
7359;SDS011;3720;48.274;7.796;2023-03-16T11:19:22;2.50;;;1.38;;
7359;SDS011;3720;48.274;7.796;2023-03-16T11:21:59;3.38;;;1.50;;
7359;SDS011;3720;48.274;7.796;2023-03-16T11:24:36;3.95;;;1.58;;
7359;SDS011;3720;48.274;7.796;2023-03-16T11:27:17;2.65;;;1.40;;
7359;SDS011;3720;48.274;7.796;2023-03-16T11:29:58;8.43;;;1.60;;
7359;SDS011;3720;48.274;7.796;2023-03-16T11:32:37;3.38;;;1.35;;
7359;SDS011;3720;48.274;7.796;2023-03-16T11:35:11;3.53;;;1.30;;
7359;SDS011;3720;48.274;7.796;2023-03-16T11:37:58;3.08;;;1.60;;
7359;SDS011;3720;48.274;7.796;2023-03-16T11:40:40;2.90;;;1.30;;
7359;SDS011;3720;48.274;7.796;2023-03-16T11:43:26;4.55;;;1.50;;
7359;SDS011;3720;48.274;7.796;2023-03-16T11:46:26;2.55;;;1.60;;
7359;SDS011;3720;48.274;7.796;2023-03-16T11:49:11;2.13;;;1.70;;
7359;SDS011;3720;48.274;7.796;2023-03-16T11:51:58;1.83;;;1.50;;
7359;SDS011;3720;48.274;7.796;2023-03-16T11:54:39;2.78;;;1.48;;
7359;SDS011;3720;48.274;7.796;2023-03-16T11:57:30;2.20;;;1.52;;
7359;SDS011;3720;48.274;7.796;2023-03-16T12:00:14;6.72;;;1.67;;
7359;SDS011;3720;48.274;7.796;2023-03-16T12:03:03;2.75;;;1.42;;
7359;SDS011;3720;48.274;7.796;2023-03-16T12:05:57;1.48;;;1.00;;
7359;SDS011;3720;48.274;7.796;2023-03-16T12:08:37;3.45;;;1.40;;
7359;SDS011;3720;48.274;7.796;2023-03-16T12:11:25;3.28;;;1.30;;
7359;SDS011;3720;48.274;7.796;2023-03-16T12:14:04;3.45;;;1.13;;
7359;SDS011;3720;48.274;7.796;2023-03-16T12:16:44;2.42;;;1.30;;
7359;SDS011;3720;48.274;7.796;2023-03-16T12:19:21;2.20;;;1.20;;
7359;SDS011;3720;48.274;7.796;2023-03-16T12:22:00;1.67;;;1.35;;
7359;SDS011;3720;48.274;7.796;2023-03-16T12:24:40;3.67;;;1.25;;
7359;SDS011;3720;48.274;7.796;2023-03-16T12:27:15;2.53;;;1.20;;
7359;SDS011;3720;48.274;7.796;2023-03-16T12:29:54;4.78;;;1.27;;
7359;SDS011;3720;48.274;7.796;2023-03-16T12:32:35;2.47;;;1.30;;
7359;SDS011;3720;48.274;7.796;2023-03-16T12:35:23;3.45;;;1.35;;
7359;SDS011;3720;48.274;7.796;2023-03-16T12:38:10;2.65;;;1.30;;
7359;SDS011;3720;48.274;7.796;2023-03-16T12:40:52;2.00;;;1.40;;
7359;SDS011;3720;48.274;7.796;2023-03-16T12:43:36;4.45;;;1.48;;
7359;SDS011;3720;48.274;7.796;2023-03-16T12:46:17;2.13;;;1.23;;
7359;SDS011;3720;48.274;7.796;2023-03-16T12:48:59;3.80;;;1.20;;
7359;SDS011;3720;48.274;7.796;2023-03-16T12:51:37;2.78;;;1.40;;
7359;SDS011;3720;48.274;7.796;2023-03-16T12:54:17;2.47;;;1.35;;
7359;SDS011;3720;48.274;7.796;2023-03-16T12:56:50;4.68;;;1.38;;
7359;SDS011;3720;48.274;7.796;2023-03-16T12:59:25;3.15;;;1.38;;
7359;SDS011;3720;48.274;7.796;2023-03-16T13:02:08;1.92;;;1.40;;
7359;SDS011;3720;48.274;7.796;2023-03-16T13:04:45;1.90;;;1.15;;
7359;SDS011;3720;48.274;7.796;2023-03-16T13:07:27;2.38;;;1.35;;
7359;SDS011;3720;48.274;7.796;2023-03-16T13:10:02;4.15;;;1.35;;
7359;SDS011;3720;48.274;7.796;2023-03-16T13:12:39;2.53;;;1.55;;
7359;SDS011;3720;48.274;7.796;2023-03-16T13:15:24;2.30;;;1.55;;
7359;SDS011;3720;48.274;7.796;2023-03-16T13:18:03;4.07;;;1.40;;
7359;SDS011;3720;48.274;7.796;2023-03-16T13:20:54;4.30;;;1.65;;
7359;SDS011;3720;48.274;7.796;2023-03-16T13:23:44;2.58;;;1.33;;
7359;SDS011;3720;48.274;7.796;2023-03-16T13:26:31;2.25;;;1.50;;
7359;SDS011;3720;48.274;7.796;2023-03-16T13:29:18;3.55;;;1.70;;
7359;SDS011;3720;48.274;7.796;2023-03-16T13:31:53;4.20;;;1.58;;
7359;SDS011;3720;48.274;7.796;2023-03-16T13:34:26;1.98;;;1.33;;
7359;SDS011;3720;48.274;7.796;2023-03-16T13:37:00;3.30;;;2.67;;
7359;SDS011;3720;48.274;7.796;2023-03-16T13:39:34;3.00;;;1.45;;
7359;SDS011;3720;48.274;7.796;2023-03-16T13:42:13;3.28;;;1.50;;
7359;SDS011;3720;48.274;7.796;2023-03-16T13:44:50;2.15;;;1.40;;
7359;SDS011;3720;48.274;7.796;2023-03-16T13:47:24;6.68;;;2.95;;
7359;SDS011;3720;48.274;7.796;2023-03-16T13:49:58;3.90;;;1.55;;
7359;SDS011;3720;48.274;7.796;2023-03-16T13:52:31;5.68;;;3.65;;
7359;SDS011;3720;48.274;7.796;2023-03-16T13:55:09;3.78;;;1.65;;
7359;SDS011;3720;48.274;7.796;2023-03-16T13:57:46;6.63;;;5.13;;
7359;SDS011;3720;48.274;7.796;2023-03-16T14:00:19;1.75;;;1.40;;
7359;SDS011;3720;48.274;7.796;2023-03-16T14:02:55;2.30;;;1.48;;
7359;SDS011;3720;48.274;7.796;2023-03-16T14:05:28;3.47;;;1.70;;
7359;SDS011;3720;48.274;7.796;2023-03-16T14:08:11;2.08;;;1.40;;
7359;SDS011;3720;48.274;7.796;2023-03-16T14:10:47;2.72;;;1.40;;
7359;SDS011;3720;48.274;7.796;2023-03-16T14:13:24;2.17;;;1.33;;
7359;SDS011;3720;48.274;7.796;2023-03-16T14:16:04;3.80;;;1.50;;
7359;SDS011;3720;48.274;7.796;2023-03-16T14:18:43;2.42;;;1.50;;
7359;SDS011;3720;48.274;7.796;2023-03-16T14:21:17;4.28;;;1.50;;
7359;SDS011;3720;48.274;7.796;2023-03-16T14:23:52;4.35;;;1.50;;
7359;SDS011;3720;48.274;7.796;2023-03-16T14:26:37;2.83;;;1.63;;
7359;SDS011;3720;48.274;7.796;2023-03-16T14:29:13;3.20;;;1.55;;
7359;SDS011;3720;48.274;7.796;2023-03-16T14:31:50;2.22;;;1.45;;
7359;SDS011;3720;48.274;7.796;2023-03-16T14:34:27;2.10;;;1.50;;
7359;SDS011;3720;48.274;7.796;2023-03-16T14:37:03;2.58;;;1.30;;
7359;SDS011;3720;48.274;7.796;2023-03-16T14:39:37;2.55;;;1.48;;
7359;SDS011;3720;48.274;7.796;2023-03-16T14:42:14;3.58;;;1.33;;
7359;SDS011;3720;48.274;7.796;2023-03-16T14:44:51;5.63;;;1.73;;
7359;SDS011;3720;48.274;7.796;2023-03-16T14:47:24;3.70;;;1.42;;
7359;SDS011;3720;48.274;7.796;2023-03-16T14:49:59;3.42;;;1.60;;
7359;SDS011;3720;48.274;7.796;2023-03-16T14:52:36;2.58;;;1.55;;
7359;SDS011;3720;48.274;7.796;2023-03-16T14:55:10;4.38;;;1.60;;
7359;SDS011;3720;48.274;7.796;2023-03-16T14:57:45;5.57;;;1.55;;
7359;SDS011;3720;48.274;7.796;2023-03-16T15:00:19;3.13;;;1.63;;
7359;SDS011;3720;48.274;7.796;2023-03-16T15:02:54;3.13;;;1.30;;
7359;SDS011;3720;48.274;7.796;2023-03-16T15:05:33;1.70;;;1.20;;
7359;SDS011;3720;48.274;7.796;2023-03-16T15:08:10;3.72;;;1.70;;
7359;SDS011;3720;48.274;7.796;2023-03-16T15:10:44;2.17;;;1.30;;
7359;SDS011;3720;48.274;7.796;2023-03-16T15:13:20;2.63;;;1.10;;
7359;SDS011;3720;48.274;7.796;2023-03-16T15:16:21;2.45;;;1.45;;
7359;SDS011;3720;48.274;7.796;2023-03-16T15:18:53;3.63;;;1.40;;
7359;SDS011;3720;48.274;7.796;2023-03-16T15:21:25;2.92;;;1.83;;
7359;SDS011;3720;48.274;7.796;2023-03-16T15:24:00;2.72;;;1.60;;
7359;SDS011;3720;48.274;7.796;2023-03-16T15:26:32;7.25;;;1.67;;
7359;SDS011;3720;48.274;7.796;2023-03-16T15:29:08;4.07;;;1.90;;
7359;SDS011;3720;48.274;7.796;2023-03-16T15:31:41;3.65;;;1.85;;
7359;SDS011;3720;48.274;7.796;2023-03-16T15:34:13;4.10;;;1.98;;
7359;SDS011;3720;48.274;7.796;2023-03-16T15:36:46;2.63;;;1.60;;
7359;SDS011;3720;48.274;7.796;2023-03-16T15:39:19;3.60;;;1.55;;
7359;SDS011;3720;48.274;7.796;2023-03-16T15:41:54;5.10;;;1.98;;
7359;SDS011;3720;48.274;7.796;2023-03-16T15:44:27;5.30;;;2.08;;
7359;SDS011;3720;48.274;7.796;2023-03-16T15:46:59;5.13;;;1.90;;
7359;SDS011;3720;48.274;7.796;2023-03-16T15:49:32;2.80;;;1.63;;
7359;SDS011;3720;48.274;7.796;2023-03-16T15:52:04;3.63;;;1.80;;
7359;SDS011;3720;48.274;7.796;2023-03-16T15:54:37;2.08;;;1.40;;
7359;SDS011;3720;48.274;7.796;2023-03-16T15:57:09;3.88;;;1.65;;
7359;SDS011;3720;48.274;7.796;2023-03-16T15:59:43;3.33;;;1.63;;
7359;SDS011;3720;48.274;7.796;2023-03-16T16:02:26;3.08;;;1.60;;
7359;SDS011;3720;48.274;7.796;2023-03-16T16:05:00;3.95;;;2.00;;
7359;SDS011;3720;48.274;7.796;2023-03-16T16:07:32;5.45;;;2.28;;
7359;SDS011;3720;48.274;7.796;2023-03-16T16:10:04;2.47;;;1.90;;
7359;SDS011;3720;48.274;7.796;2023-03-16T16:12:38;3.00;;;1.98;;
7359;SDS011;3720;48.274;7.796;2023-03-16T16:17:52;3.60;;;2.40;;